Time;durP1;ratioP1;P1;durP2;ratioP2;P2;SDS_P1;SDS_P2;PMS_P1;PMS_P2;Temp;Humidity;BMP_temperature;BMP_pressure;BME280_temperature;BME280_humidity;BME280_pressure;Samples;Min_cycle;Max_cycle;Signal;HPM_P1;HPM_P2
2024/01/08 00:01:27;;;;;;;25.15;23.70;;;-2.20;99.90;;;;;;4981671;28;20466;-32
2024/01/08 00:03:52;;;;;;;30.52;28.88;;;-2.20;99.90;;;;;;4985216;28;20051;-32
2024/01/08 00:06:18;;;;;;;26.73;25.23;;;-2.20;99.90;;;;;;4981178;28;20058;-32
2024/01/08 00:08:44;;;;;;;25.00;23.50;;;-2.20;99.90;;;;;;4965403;28;20138;-32
2024/01/08 00:11:10;;;;;;;25.52;23.98;;;-2.20;99.90;;;;;;4982566;28;20055;-33
2024/01/08 00:13:36;;;;;;;25.25;23.83;;;-2.20;99.90;;;;;;4983736;28;20058;-33
2024/01/08 00:16:01;;;;;;;26.42;24.95;;;-2.20;99.90;;;;;;4988702;28;20038;-33
2024/01/08 00:18:30;;;;;;;23.35;21.77;;;-2.20;99.90;;;;;;4984228;28;20412;-32
2024/01/08 00:20:56;;;;;;;22.23;20.92;;;-2.20;99.90;;;;;;4981686;28;20105;-33
2024/01/08 00:23:23;;;;;;;18.42;17.10;;;-2.20;99.90;;;;;;4964165;28;20057;-33
2024/01/08 00:25:49;;;;;;;19.52;18.42;;;-2.30;99.90;;;;;;4983312;28;20693;-37
2024/01/08 00:28:15;;;;;;;20.73;19.42;;;-2.30;99.90;;;;;;4980390;28;20050;-33
2024/01/08 00:30:40;;;;;;;22.00;20.58;;;-2.30;99.90;;;;;;4981792;28;20133;-35
2024/01/08 00:33:06;;;;;;;18.35;17.25;;;-2.30;99.90;;;;;;4982522;28;20472;-33
2024/01/08 00:35:32;;;;;;;18.75;17.55;;;-2.30;99.90;;;;;;4974303;28;20050;-33
2024/01/08 00:37:57;;;;;;;21.88;20.52;;;-2.40;99.90;;;;;;4981781;28;20575;-32
2024/01/08 00:40:23;;;;;;;22.13;20.70;;;-2.40;99.90;;;;;;4982502;28;20173;-32
2024/01/08 00:42:49;;;;;;;19.45;18.35;;;-2.40;99.90;;;;;;4963188;28;20635;-33
2024/01/08 00:45:14;;;;;;;19.33;18.23;;;-2.40;99.90;;;;;;4979284;28;20105;-34
2024/01/08 00:47:41;;;;;;;20.02;18.90;;;-2.40;99.90;;;;;;4981104;28;20461;-33
2024/01/08 00:50:09;;;;;;;21.10;19.80;;;-2.40;99.90;;;;;;4981706;28;20054;-33
2024/01/08 00:52:36;;;;;;;18.92;17.63;;;-2.40;99.90;;;;;;4981826;28;20058;-32
2024/01/08 00:55:04;;;;;;;17.77;16.67;;;-2.40;99.90;;;;;;4976757;28;20442;-33
2024/01/08 00:57:34;;;;;;;14.95;13.95;;;-2.40;99.90;;;;;;4981353;28;20217;-33
2024/01/08 01:00:00;;;;;;;19.13;17.73;;;-2.40;99.90;;;;;;4979480;28;20050;-33
2024/01/08 01:02:25;;;;;;;14.05;13.13;;;-2.40;99.90;;;;;;4975974;28;20536;-33
2024/01/08 01:04:51;;;;;;;16.10;14.93;;;-2.40;99.90;;;;;;4967400;28;20133;-34
2024/01/08 01:07:17;;;;;;;15.38;14.00;;;-2.40;99.90;;;;;;4980338;28;20058;-32
2024/01/08 01:09:42;;;;;;;16.27;15.23;;;-2.40;99.90;;;;;;4974904;28;20133;-32
2024/01/08 01:12:09;;;;;;;16.17;14.88;;;-2.40;99.90;;;;;;4983144;28;20065;-36
2024/01/08 01:14:35;;;;;;;16.80;15.60;;;-2.40;99.90;;;;;;4985711;28;20054;-32
2024/01/08 01:17:01;;;;;;;15.55;14.45;;;-2.50;99.90;;;;;;4983046;28;20055;-33
2024/01/08 01:19:27;;;;;;;15.05;14.05;;;-2.50;99.90;;;;;;4980392;28;20050;-32
2024/01/08 01:21:53;;;;;;;15.88;14.90;;;-2.50;99.90;;;;;;4980690;28;20046;-32
2024/01/08 01:24:19;;;;;;;15.57;14.55;;;-2.50;99.90;;;;;;4981530;28;20449;-32
2024/01/08 01:26:44;;;;;;;17.98;16.90;;;-2.50;99.90;;;;;;4981667;28;20054;-32
2024/01/08 01:29:11;;;;;;;16.13;15.13;;;-2.50;99.90;;;;;;4978872;28;20108;-32
2024/01/08 01:31:36;;;;;;;16.00;14.90;;;-2.50;99.90;;;;;;4980240;28;20054;-33
2024/01/08 01:34:06;;;;;;;16.35;15.32;;;-2.50;99.90;;;;;;4964345;28;20054;-32
2024/01/08 01:36:35;;;;;;;15.52;14.52;;;-2.50;99.90;;;;;;4979835;28;20052;-32
2024/01/08 01:39:04;;;;;;;15.93;14.82;;;-2.60;99.90;;;;;;4979400;28;20149;-32
2024/01/08 01:41:31;;;;;;;19.98;18.52;;;-2.60;99.90;;;;;;4983374;28;20056;-32
2024/01/08 01:43:57;;;;;;;18.88;17.58;;;-2.60;99.90;;;;;;4980318;28;20566;-34
2024/01/08 01:46:45;;;;;;;16.67;15.57;;;-2.60;99.90;;;;;;4984350;28;20054;-32
2024/01/08 01:49:12;;;;;;;23.10;21.52;;;-2.60;99.90;;;;;;4984863;28;20477;-33
2024/01/08 01:51:41;;;;;;;17.63;16.17;;;-2.60;99.90;;;;;;4987790;28;20173;-32
2024/01/08 01:54:07;;;;;;;21.45;20.15;;;-2.60;99.90;;;;;;4985779;28;20118;-32
2024/01/08 01:56:34;;;;;;;22.73;21.38;;;-2.60;99.90;;;;;;4985496;28;20053;-32
2024/01/08 01:59:03;;;;;;;23.88;22.48;;;-2.60;99.90;;;;;;4985891;28;20055;-33
2024/01/08 02:01:29;;;;;;;28.85;27.20;;;-2.60;99.90;;;;;;4985579;28;20050;-34
2024/01/08 02:03:55;;;;;;;25.13;23.58;;;-2.60;99.90;;;;;;4985815;28;20058;-34
2024/01/08 02:06:23;;;;;;;23.33;21.65;;;-2.60;99.90;;;;;;4982549;28;20050;-33
2024/01/08 02:08:52;;;;;;;30.08;28.33;;;-2.60;99.90;;;;;;4984589;28;20042;-33
2024/01/08 02:11:18;;;;;;;23.38;21.65;;;-2.50;99.90;;;;;;4966779;28;20122;-34
2024/01/08 02:13:44;;;;;;;25.00;23.48;;;-2.40;99.90;;;;;;4992622;28;20042;-34
2024/01/08 02:16:10;;;;;;;23.77;22.38;;;-2.30;99.90;;;;;;4985839;28;20057;-33
2024/01/08 02:18:35;;;;;;;22.45;21.05;;;-2.30;99.90;;;;;;4984816;28;20046;-34
2024/01/08 02:21:01;;;;;;;20.35;19.05;;;-2.20;99.90;;;;;;4985516;28;20053;-33
2024/01/08 02:23:27;;;;;;;25.52;24.02;;;-2.20;99.90;;;;;;4986213;28;20105;-34
2024/01/08 02:25:52;;;;;;;24.63;23.13;;;-2.20;99.90;;;;;;4987264;28;20057;-32
2024/01/08 02:28:18;;;;;;;23.70;22.13;;;-2.10;99.90;;;;;;4985988;28;20416;-32
2024/01/08 02:30:44;;;;;;;19.48;18.05;;;-2.10;99.90;;;;;;4982112;28;20125;-33
2024/01/08 02:33:09;;;;;;;21.42;19.63;;;-2.00;99.90;;;;;;4986668;28;20494;-32
2024/01/08 02:35:36;;;;;;;21.50;20.08;;;-2.00;99.90;;;;;;4985552;28;20249;-33
2024/01/08 02:38:02;;;;;;;19.05;17.77;;;-1.90;99.90;;;;;;4984698;28;20046;-33
2024/01/08 02:40:28;;;;;;;19.95;18.65;;;-1.90;99.90;;;;;;4985277;28;20054;-36
2024/01/08 02:42:54;;;;;;;17.58;16.55;;;-1.90;99.90;;;;;;4984953;28;20445;-34
2024/01/08 02:45:19;;;;;;;21.83;20.20;;;-1.90;99.90;;;;;;4980801;28;20062;-33
2024/01/08 02:47:45;;;;;;;19.85;18.65;;;-1.90;99.90;;;;;;4987032;28;20133;-33
2024/01/08 02:50:11;;;;;;;18.70;17.40;;;-1.90;99.90;;;;;;4983948;28;20056;-33
2024/01/08 02:52:36;;;;;;;19.02;17.55;;;-1.80;99.90;;;;;;4983806;28;20145;-34
2024/01/08 02:55:05;;;;;;;19.40;18.10;;;-1.80;99.90;;;;;;4986234;28;20489;-34
2024/01/08 02:57:31;;;;;;;17.58;16.27;;;-1.80;99.90;;;;;;4984711;28;20068;-32
2024/01/08 02:59:57;;;;;;;19.15;17.95;;;-1.70;99.90;;;;;;4984897;28;20445;-33
2024/01/08 03:02:25;;;;;;;16.90;15.65;;;-1.70;99.90;;;;;;4981315;28;20476;-33
2024/01/08 03:04:52;;;;;;;18.30;17.00;;;-1.70;99.90;;;;;;4983701;28;20054;-33
2024/01/08 03:07:20;;;;;;;18.23;16.92;;;-1.60;99.90;;;;;;4985533;28;20060;-33
2024/01/08 03:09:46;;;;;;;18.70;17.17;;;-1.60;99.90;;;;;;4959080;28;20109;-33
2024/01/08 03:12:13;;;;;;;18.55;17.33;;;-1.60;99.90;;;;;;4969024;28;20496;-34
2024/01/08 03:14:39;;;;;;;20.10;18.70;;;-1.60;99.90;;;;;;4965535;28;20050;-34
2024/01/08 03:17:05;;;;;;;15.60;14.50;;;-1.50;99.90;;;;;;4986028;28;20489;-38
2024/01/08 03:19:31;;;;;;;19.77;18.38;;;-1.50;99.90;;;;;;4987748;28;20054;-33
2024/01/08 03:22:00;;;;;;;21.30;19.90;;;-1.50;99.90;;;;;;4987111;28;20046;-32
2024/01/08 03:24:25;;;;;;;21.30;19.77;;;-1.50;99.90;;;;;;4978907;28;20116;-33
2024/01/08 03:26:51;;;;;;;21.30;19.83;;;-1.50;99.90;;;;;;4972122;28;20439;-34
2024/01/08 03:29:17;;;;;;;19.80;18.60;;;-1.40;99.90;;;;;;4987873;28;20064;-33
2024/01/08 03:31:43;;;;;;;20.45;18.95;;;-1.40;99.90;;;;;;4988425;28;20058;-33
2024/01/08 03:34:09;;;;;;;21.02;19.63;;;-1.40;99.90;;;;;;4989226;28;20108;-35
2024/01/08 03:36:34;;;;;;;21.65;20.08;;;-1.40;99.90;;;;;;4987262;28;20133;-33
2024/01/08 03:39:00;;;;;;;19.17;17.92;;;-1.40;99.90;;;;;;4983545;28;20057;-33
2024/01/08 03:41:26;;;;;;;25.55;23.90;;;-1.30;99.90;;;;;;4988754;28;20073;-33
2024/01/08 03:43:52;;;;;;;25.58;23.98;;;-1.30;99.90;;;;;;4971434;28;20133;-32
2024/01/08 03:46:18;;;;;;;23.98;22.48;;;-1.30;99.90;;;;;;4987428;28;20412;-33
2024/01/08 03:48:44;;;;;;;23.50;21.92;;;-1.30;99.90;;;;;;4986662;28;20073;-33
2024/01/08 03:51:09;;;;;;;28.25;26.48;;;-1.30;99.90;;;;;;4987139;28;20042;-33
2024/01/08 03:53:35;;;;;;;25.80;24.00;;;-1.30;99.90;;;;;;4989345;28;20054;-33
2024/01/08 03:56:01;;;;;;;26.52;24.90;;;-1.30;99.90;;;;;;4990297;28;20392;-34
2024/01/08 03:58:27;;;;;;;27.77;26.02;;;-1.30;99.90;;;;;;4987230;28;20809;-34
2024/01/08 04:00:56;;;;;;;26.73;25.00;;;-1.20;99.90;;;;;;4970869;28;20148;-34
2024/01/08 04:03:22;;;;;;;26.95;25.13;;;-1.20;99.90;;;;;;4988066;28;20137;-33
2024/01/08 04:05:48;;;;;;;32.53;30.25;;;-1.20;99.90;;;;;;4989066;28;20046;-33
2024/01/08 04:08:14;;;;;;;34.85;32.78;;;-1.20;99.90;;;;;;4986620;28;20044;-34
2024/01/08 04:10:39;;;;;;;34.40;32.22;;;-1.20;99.90;;;;;;4988296;28;20050;-34
2024/01/08 04:13:05;;;;;;;34.45;32.35;;;-1.20;99.90;;;;;;4988479;28;20062;-33
2024/01/08 04:15:31;;;;;;;38.35;36.05;;;-1.20;99.90;;;;;;4986612;28;20065;-34
2024/01/08 04:17:57;;;;;;;37.00;34.80;;;-1.20;99.90;;;;;;4989210;28;20137;-33
2024/01/08 04:20:22;;;;;;;40.47;38.28;;;-1.20;99.90;;;;;;4983294;28;20047;-33
2024/01/08 04:22:50;;;;;;;38.22;35.80;;;-1.20;99.90;;;;;;4987484;28;20096;-33
2024/01/08 04:25:16;;;;;;;41.95;39.55;;;-1.10;99.90;;;;;;4970216;28;20047;-41
2024/01/08 04:27:45;;;;;;;42.08;39.70;;;-1.10;99.90;;;;;;4987098;28;20567;-34
2024/01/08 04:30:11;;;;;;;41.20;38.90;;;-1.10;99.90;;;;;;4986095;28;20050;-33
2024/01/08 04:32:37;;;;;;;47.38;44.72;;;-1.10;99.90;;;;;;4983751;28;20145;-35
2024/01/08 04:35:04;;;;;;;49.85;47.03;;;-1.10;99.90;;;;;;4989489;28;20145;-42
2024/01/08 04:37:29;;;;;;;44.13;41.72;;;-1.10;99.90;;;;;;4985402;28;20082;-33
2024/01/08 04:39:55;;;;;;;45.75;43.13;;;-1.10;99.90;;;;;;4988206;28;21178;-34
2024/01/08 04:42:21;;;;;;;48.38;45.78;;;-1.10;99.90;;;;;;4988946;28;20050;-33
2024/01/08 04:44:47;;;;;;;45.55;43.08;;;-1.10;99.90;;;;;;4986056;28;20559;-33
2024/01/08 04:47:13;;;;;;;49.25;46.40;;;-1.10;99.90;;;;;;4988736;28;20076;-32
2024/01/08 04:49:40;;;;;;;49.90;47.20;;;-1.00;99.90;;;;;;4962488;28;20517;-33
2024/01/08 04:52:05;;;;;;;46.15;43.47;;;-1.10;99.90;;;;;;4987139;28;20501;-33
2024/01/08 04:54:31;;;;;;;43.70;41.08;;;-1.00;99.90;;;;;;4988484;28;20137;-33
2024/01/08 04:56:57;;;;;;;47.45;44.58;;;-1.00;99.90;;;;;;4985933;28;20060;-32
2024/01/08 04:59:23;;;;;;;46.60;43.90;;;-1.00;99.90;;;;;;4985266;28;20049;-32
2024/01/08 05:01:52;;;;;;;45.35;42.80;;;-1.00;99.90;;;;;;4987324;28;20057;-33
2024/01/08 05:04:18;;;;;;;42.83;40.58;;;-1.00;99.90;;;;;;4988500;28;20066;-33
2024/01/08 05:06:44;;;;;;;41.42;39.13;;;-1.00;99.90;;;;;;4981814;28;20081;-33
2024/01/08 05:09:10;;;;;;;39.35;37.13;;;-1.00;99.90;;;;;;4986159;28;20146;-37
2024/01/08 05:11:36;;;;;;;38.20;36.13;;;-1.00;99.90;;;;;;4987647;28;20487;-33
2024/01/08 05:14:05;;;;;;;34.63;32.58;;;-1.00;99.90;;;;;;4986770;28;20504;-47
2024/01/08 05:16:32;;;;;;;31.00;29.23;;;-1.00;99.90;;;;;;4985322;28;20458;-34
2024/01/08 05:18:58;;;;;;;27.95;26.33;;;-1.00;99.90;;;;;;4974707;28;20035;-34
2024/01/08 05:21:23;;;;;;;35.00;32.92;;;-1.00;99.90;;;;;;4965874;28;20055;-33
2024/01/08 05:23:49;;;;;;;33.33;31.42;;;-1.00;99.90;;;;;;4973669;28;20058;-33
2024/01/08 05:26:15;;;;;;;30.90;29.13;;;-1.00;99.90;;;;;;4985634;28;20145;-34
2024/01/08 05:28:40;;;;;;;29.30;27.55;;;-1.00;99.90;;;;;;4981230;28;20058;-33
2024/01/08 05:31:06;;;;;;;31.10;29.40;;;-1.00;99.90;;;;;;4979484;28;20055;-34
2024/01/08 05:33:32;;;;;;;28.65;26.95;;;-1.00;99.90;;;;;;4988090;28;20050;-33
2024/01/08 05:35:57;;;;;;;31.70;29.80;;;-1.00;99.90;;;;;;4972967;28;20133;-32
2024/01/08 05:38:24;;;;;;;27.90;26.15;;;-1.00;99.90;;;;;;4967923;28;20523;-32
2024/01/08 05:40:50;;;;;;;28.30;26.65;;;-1.00;99.90;;;;;;4984749;28;20086;-34
2024/01/08 05:43:16;;;;;;;29.13;27.38;;;-1.10;99.90;;;;;;4986196;28;20448;-33
2024/01/08 05:45:41;;;;;;;28.88;27.05;;;-1.10;99.90;;;;;;4982281;28;20053;-33
2024/01/08 05:48:07;;;;;;;27.73;26.08;;;-1.10;99.90;;;;;;4973537;28;20544;-36
2024/01/08 05:50:33;;;;;;;26.67;25.13;;;-1.10;99.90;;;;;;4974531;28;20066;-34
2024/01/08 05:53:00;;;;;;;26.60;25.00;;;-1.10;99.90;;;;;;4965333;28;20050;-35
2024/01/08 05:55:26;;;;;;;26.10;24.55;;;-1.20;99.90;;;;;;4981410;28;20165;-33
2024/01/08 05:57:52;;;;;;;27.90;26.30;;;-1.20;99.90;;;;;;4986915;28;20490;-33
2024/01/08 06:00:18;;;;;;;26.35;24.85;;;-1.20;99.90;;;;;;4983806;28;20054;-34
2024/01/08 06:02:44;;;;;;;27.05;25.55;;;-1.20;99.90;;;;;;4987271;28;20484;-35
2024/01/08 06:05:10;;;;;;;22.75;21.45;;;-1.30;99.90;;;;;;4967386;28;20043;-32
2024/01/08 06:07:36;;;;;;;23.85;22.45;;;-1.30;99.90;;;;;;4981226;28;20129;-33
2024/01/08 06:10:02;;;;;;;25.23;23.63;;;-1.40;99.90;;;;;;4986177;28;20137;-34
2024/01/08 06:12:28;;;;;;;21.15;19.80;;;-1.40;99.90;;;;;;4986480;28;20093;-32
2024/01/08 06:14:55;;;;;;;21.83;20.30;;;-1.40;99.90;;;;;;4985167;28;20492;-33
2024/01/08 06:17:21;;;;;;;21.55;20.20;;;-1.40;99.90;;;;;;4967365;28;20046;-49
2024/01/08 06:19:48;;;;;;;20.55;19.27;;;-1.40;99.90;;;;;;4987054;28;20050;-32
2024/01/08 06:22:15;;;;;;;19.10;17.90;;;-1.40;99.90;;;;;;4988745;28;20054;-33
2024/01/08 06:24:41;;;;;;;19.48;18.17;;;-1.40;99.90;;;;;;4986713;28;20128;-35
2024/01/08 06:27:07;;;;;;;18.05;16.95;;;-1.40;99.90;;;;;;4984848;28;20038;-33
2024/01/08 06:29:33;;;;;;;16.45;15.38;;;-1.40;99.90;;;;;;4965322;28;20404;-32
2024/01/08 06:31:59;;;;;;;19.45;18.23;;;-1.40;99.90;;;;;;4983844;28;20505;-36
2024/01/08 06:34:25;;;;;;;16.55;15.27;;;-1.40;99.90;;;;;;4983867;28;20049;-33
2024/01/08 06:36:51;;;;;;;14.38;13.40;;;-1.30;99.90;;;;;;4985646;28;20050;-34
2024/01/08 06:39:16;;;;;;;16.90;15.68;;;-1.40;99.90;;;;;;4985100;28;20053;-34
2024/01/08 06:41:42;;;;;;;14.02;13.02;;;-1.30;99.90;;;;;;4982654;28;20100;-33
2024/01/08 06:44:08;;;;;;;16.48;15.52;;;-1.30;99.90;;;;;;4983355;28;20070;-33
2024/01/08 06:46:34;;;;;;;15.32;14.32;;;-1.30;99.90;;;;;;4984587;28;20050;-33
2024/01/08 06:49:00;;;;;;;14.55;13.57;;;-1.30;99.90;;;;;;4985479;28;20081;-41
2024/01/08 06:51:25;;;;;;;16.40;15.23;;;-1.30;99.90;;;;;;4988327;28;20069;-34
2024/01/08 06:53:51;;;;;;;16.63;15.55;;;-1.30;99.90;;;;;;4985760;28;20571;-34
2024/01/08 06:56:17;;;;;;;17.77;16.67;;;-1.30;99.90;;;;;;4973011;28;20409;-34
2024/01/08 06:58:42;;;;;;;18.02;16.83;;;-1.30;99.90;;;;;;4983498;28;20109;-34
2024/01/08 07:01:08;;;;;;;18.13;16.92;;;-1.30;99.90;;;;;;4969342;28;20137;-34
2024/01/08 07:03:37;;;;;;;18.20;16.98;;;-1.30;99.90;;;;;;4983865;28;20160;-32
2024/01/08 07:06:03;;;;;;;20.35;19.05;;;-1.30;99.90;;;;;;4984915;28;20562;-33
2024/01/08 07:08:28;;;;;;;18.42;17.25;;;-1.30;99.90;;;;;;4989670;28;20054;-34
2024/01/08 07:10:54;;;;;;;21.58;20.08;;;-1.30;99.90;;;;;;4987608;28;20567;-33
2024/01/08 07:13:21;;;;;;;22.85;21.45;;;-1.30;99.90;;;;;;4989439;28;20252;-33
2024/01/08 07:15:48;;;;;;;29.45;27.77;;;-1.30;99.90;;;;;;4987791;28;20054;-35
2024/01/08 07:18:20;;;;;;;28.42;26.55;;;-1.30;99.90;;;;;;4979620;28;20469;-34
2024/01/08 07:20:46;;;;;;;25.80;24.15;;;-1.30;99.90;;;;;;4968835;28;20134;-32
2024/01/08 07:23:13;;;;;;;27.63;25.95;;;-1.30;99.90;;;;;;4971150;28;20190;-33
2024/01/08 07:25:39;;;;;;;28.30;26.52;;;-1.20;99.90;;;;;;4963928;28;20479;-32
2024/01/08 07:28:07;;;;;;;31.95;29.75;;;-1.30;99.90;;;;;;4985936;28;20058;-34
2024/01/08 07:30:33;;;;;;;29.15;27.50;;;-1.30;99.90;;;;;;4991160;28;20437;-40
2024/01/08 07:32:59;;;;;;;30.80;29.00;;;-1.30;99.90;;;;;;4979840;28;20050;-32
2024/01/08 07:35:25;;;;;;;32.60;30.45;;;-1.30;99.90;;;;;;4985230;28;20124;-33
2024/01/08 07:37:55;;;;;;;36.00;33.80;;;-1.30;99.90;;;;;;4966804;28;20089;-32
2024/01/08 07:40:25;;;;;;;35.45;33.35;;;-1.30;99.90;;;;;;4984351;28;20485;-35
2024/01/08 07:42:55;;;;;;;34.85;33.03;;;-1.30;99.90;;;;;;4979341;28;20050;-34
2024/01/08 07:45:25;;;;;;;35.03;32.92;;;-1.30;99.90;;;;;;4984890;28;20052;-33
2024/01/08 07:47:51;;;;;;;38.33;36.20;;;-1.20;99.90;;;;;;4977427;28;20073;-33
2024/01/08 07:50:17;;;;;;;41.17;38.78;;;-1.20;99.90;;;;;;4980175;28;20113;-34
2024/01/08 07:52:43;;;;;;;38.33;36.28;;;-1.20;99.90;;;;;;4982275;28;20062;-34
2024/01/08 07:55:09;;;;;;;41.10;38.70;;;-1.20;99.90;;;;;;4982700;28;20055;-33
2024/01/08 07:57:35;;;;;;;43.33;40.95;;;-1.20;99.90;;;;;;4980262;28;20460;-32
2024/01/08 08:00:01;;;;;;;44.67;42.30;;;-1.20;99.90;;;;;;4982609;28;20063;-33
2024/01/08 08:02:27;;;;;;;44.83;42.17;;;-1.10;99.90;;;;;;4961691;28;20059;-39
2024/01/08 08:04:53;;;;;;;43.33;40.83;;;-1.20;99.90;;;;;;4984642;28;20108;-33
2024/01/08 08:07:19;;;;;;;46.15;43.47;;;-1.20;99.90;;;;;;4980432;28;20060;-33
2024/01/08 08:09:45;;;;;;;40.25;37.90;;;-1.10;99.90;;;;;;4966223;28;20050;-33
2024/01/08 08:12:11;;;;;;;46.75;44.08;;;-1.10;99.90;;;;;;4978408;28;20472;-33
2024/01/08 08:14:37;;;;;;;43.65;41.28;;;-1.10;99.90;;;;;;4980823;28;20057;-33
2024/01/08 08:17:04;;;;;;;38.63;36.60;;;-1.10;99.90;;;;;;4978895;28;20050;-33
2024/01/08 08:19:30;;;;;;;43.72;41.38;;;-1.10;99.90;;;;;;4980546;28;20559;-34
2024/01/08 08:21:56;;;;;;;39.90;37.70;;;-1.10;99.90;;;;;;4977661;28;21472;-34
2024/01/08 08:24:22;;;;;;;37.88;35.83;;;-1.00;99.90;;;;;;4984925;28;20476;-34
2024/01/08 08:26:48;;;;;;;46.25;43.88;;;-1.00;99.90;;;;;;4968065;28;20100;-34
2024/01/08 08:29:14;;;;;;;42.45;40.08;;;-1.00;99.90;;;;;;4982452;28;20062;-32
2024/01/08 08:31:39;;;;;;;36.88;34.92;;;-1.00;99.90;;;;;;4983049;28;20069;-34
2024/01/08 08:34:05;;;;;;;35.17;33.10;;;-1.00;99.90;;;;;;4962846;28;20412;-39
2024/01/08 08:36:31;;;;;;;43.53;41.25;;;-0.90;99.90;;;;;;4972055;28;20047;-43
2024/01/08 08:38:56;;;;;;;39.17;36.83;;;-0.90;99.90;;;;;;4981145;28;20043;-32
2024/01/08 08:41:22;;;;;;;33.97;32.08;;;-0.90;99.90;;;;;;4984677;28;20292;-33
2024/01/08 08:43:48;;;;;;;35.90;34.13;;;-0.90;99.90;;;;;;4980771;28;20516;-32
2024/01/08 08:46:17;;;;;;;32.42;30.50;;;-0.90;99.90;;;;;;4981760;28;20073;-33
2024/01/08 08:48:43;;;;;;;38.08;36.08;;;-0.80;99.90;;;;;;4982050;28;20045;-34
2024/01/08 08:51:10;;;;;;;35.35;33.33;;;-0.80;99.90;;;;;;4964920;28;20044;-37
2024/01/08 08:53:37;;;;;;;34.63;32.78;;;-0.80;99.90;;;;;;4982774;28;20480;-32
2024/01/08 08:56:04;;;;;;;29.75;27.52;;;-0.80;99.90;;;;;;4963268;28;20445;-32
2024/01/08 08:58:30;;;;;;;28.63;27.08;;;-0.70;99.90;;;;;;4983639;28;20057;-33
2024/01/08 09:00:56;;;;;;;30.02;28.25;;;-0.70;99.90;;;;;;4970796;28;20093;-33
2024/01/08 09:03:22;;;;;;;25.65;24.20;;;-0.70;99.90;;;;;;4984081;28;20050;-32
2024/01/08 09:05:48;;;;;;;25.23;23.70;;;-0.70;99.90;;;;;;4993532;28;20053;-33
2024/01/08 09:08:14;;;;;;;22.00;20.55;;;-0.70;99.90;;;;;;4978222;28;20610;-32
2024/01/08 09:10:39;;;;;;;19.45;17.85;;;-0.60;99.90;;;;;;4984843;28;20058;-33
2024/01/08 09:13:05;;;;;;;30.02;28.35;;;-0.60;99.90;;;;;;4983157;28;20109;-32
2024/01/08 09:15:31;;;;;;;24.52;22.95;;;-0.60;99.90;;;;;;4983994;28;20054;-32
2024/01/08 09:17:56;;;;;;;23.15;21.77;;;-0.50;99.90;;;;;;4980759;28;20046;-32
2024/01/08 09:20:23;;;;;;;18.15;16.98;;;-0.50;99.90;;;;;;4972624;28;20474;-32
2024/01/08 09:22:48;;;;;;;18.48;17.23;;;-0.50;99.90;;;;;;4979923;28;20769;-33
2024/01/08 09:25:14;;;;;;;20.55;19.17;;;-0.50;99.90;;;;;;4956631;28;20417;-33
2024/01/08 09:27:42;;;;;;;18.33;17.13;;;-0.50;99.90;;;;;;4982145;28;20070;-40
2024/01/08 09:30:08;;;;;;;18.65;17.17;;;-0.50;99.90;;;;;;4978660;28;20050;-33
2024/01/08 09:32:35;;;;;;;13.32;12.43;;;-0.40;99.90;;;;;;4985935;28;20416;-33
2024/01/08 09:35:00;;;;;;;14.40;13.40;;;-0.40;99.90;;;;;;4961656;28;20061;-32
2024/01/08 09:37:26;;;;;;;15.77;14.73;;;-0.40;99.90;;;;;;4980842;28;20130;-32
2024/01/08 09:39:53;;;;;;;19.00;17.70;;;-0.40;99.90;;;;;;4980021;28;20100;-32
2024/01/08 09:42:20;;;;;;;23.17;21.58;;;-0.30;99.90;;;;;;4977576;28;20105;-33
2024/01/08 09:44:53;;;;;;;17.30;16.15;;;-0.30;99.90;;;;;;4984096;28;20145;-33
2024/01/08 09:47:20;;;;;;;14.55;13.45;;;-0.30;99.90;;;;;;4981088;28;20137;-33
2024/01/08 09:49:46;;;;;;;23.73;22.10;;;-0.30;99.90;;;;;;4978981;28;20856;-33
2024/01/08 09:52:13;;;;;;;15.43;14.45;;;-0.30;99.90;;;;;;4982624;28;20511;-33
2024/01/08 09:54:41;;;;;;;12.43;11.45;;;-0.20;99.90;;;;;;4977592;28;20496;-32
2024/01/08 09:57:08;;;;;;;20.65;19.45;;;-0.20;99.90;;;;;;4981933;28;20046;-32
2024/01/08 09:59:35;;;;;;;12.10;11.27;;;-0.20;99.90;;;;;;4981571;28;20120;-32
2024/01/08 10:02:00;;;;;;;20.25;18.95;;;-0.20;99.90;;;;;;4983215;28;20099;-32
2024/01/08 10:04:27;;;;;;;14.65;13.60;;;-0.20;99.90;;;;;;4979501;28;20097;-32
2024/01/08 10:07:12;;;;;;;12.27;11.35;;;-0.20;99.90;;;;;;4978719;28;20516;-32
2024/01/08 10:09:38;;;;;;;17.38;16.17;;;-0.20;99.90;;;;;;4967008;28;20054;-32
2024/01/08 10:12:07;;;;;;;14.50;13.27;;;-0.20;99.90;;;;;;4968090;28;20124;-33
2024/01/08 10:14:34;;;;;;;15.55;14.45;;;-0.10;99.90;;;;;;4976831;28;20054;-32
2024/01/08 10:17:00;;;;;;;13.35;12.35;;;-0.10;99.90;;;;;;4978377;28;20059;-39
2024/01/08 10:19:27;;;;;;;16.92;15.82;;;-0.10;99.90;;;;;;4980844;28;20084;-34
2024/01/08 10:22:10;;;;;;;11.55;10.75;;;-0.10;99.90;;;;;;4979454;28;20421;-33
2024/01/08 10:24:40;;;;;;;10.77;9.88;;;-0.10;99.90;;;;;;4955495;28;20054;-33
2024/01/08 10:27:10;;;;;;;16.67;15.60;;;-0.10;99.90;;;;;;4966145;28;20046;-33
2024/01/08 10:29:40;;;;;;;12.95;12.00;;;-0.10;99.90;;;;;;4981286;28;20046;-33
2024/01/08 10:32:06;;;;;;;10.30;9.52;;;0.00;99.90;;;;;;4975170;28;20054;-34
2024/01/08 10:34:34;;;;;;;13.50;12.50;;;0.00;99.90;;;;;;4977923;28;20042;-33
2024/01/08 10:37:00;;;;;;;11.80;10.98;;;0.00;99.90;;;;;;4981882;28;20050;-33
2024/01/08 10:39:30;;;;;;;7.72;7.13;;;0.00;99.90;;;;;;4980531;28;20061;-32
2024/01/08 10:41:57;;;;;;;10.43;9.10;;;0.00;99.90;;;;;;4975243;28;20581;-32
2024/01/08 10:44:24;;;;;;;12.63;11.45;;;0.00;99.90;;;;;;4957715;28;20047;-32
2024/01/08 10:46:57;;;;;;;9.77;8.98;;;0.10;99.90;;;;;;4974674;28;20050;-32
2024/01/08 10:49:32;;;;;;;11.95;10.98;;;0.10;99.90;;;;;;4977941;28;20101;-32
2024/01/08 10:51:59;;;;;;;11.23;10.13;;;0.10;99.90;;;;;;4976572;28;20058;-32
2024/01/08 10:54:35;;;;;;;10.98;10.13;;;0.10;99.90;;;;;;4981134;28;20077;-32
2024/01/08 10:57:05;;;;;;;14.13;13.20;;;0.10;99.90;;;;;;4980768;28;20559;-32
2024/01/08 10:59:32;;;;;;;14.00;13.13;;;0.10;99.90;;;;;;4975891;28;20057;-32
2024/01/08 11:01:58;;;;;;;10.05;9.25;;;0.10;99.90;;;;;;4982264;28;20404;-33
2024/01/08 11:04:24;;;;;;;11.82;10.98;;;0.20;99.90;;;;;;4938503;28;20051;-44
2024/01/08 11:06:52;;;;;;;14.05;12.90;;;0.20;99.90;;;;;;4975440;28;20072;-32
2024/01/08 11:09:25;;;;;;;12.35;11.55;;;0.20;99.90;;;;;;4973728;28;20047;-32
2024/01/08 11:11:51;;;;;;;19.77;18.55;;;0.20;99.90;;;;;;4976184;28;20121;-32
2024/01/08 11:14:17;;;;;;;16.75;15.73;;;0.40;99.90;;;;;;4985518;28;20046;-49
2024/01/08 11:16:43;;;;;;;18.35;17.23;;;0.50;99.90;;;;;;4983813;28;20122;-43
2024/01/08 11:19:18;;;;;;;16.60;15.50;;;0.50;99.90;;;;;;4981926;28;20073;-34
2024/01/08 11:21:45;;;;;;;17.30;16.23;;;0.50;99.90;;;;;;4984135;28;20130;-33
2024/01/08 11:24:11;;;;;;;20.70;19.35;;;0.50;99.90;;;;;;4985438;28;20046;-33
2024/01/08 11:26:41;;;;;;;17.70;16.45;;;0.60;99.90;;;;;;4971009;28;20176;-33
2024/01/08 11:29:10;;;;;;;23.02;21.70;;;0.60;99.90;;;;;;4982791;28;20496;-34
2024/01/08 11:31:57;;;;;;;29.00;27.30;;;0.80;99.90;;;;;;4982269;28;20285;-35
2024/01/08 11:34:32;;;;;;;38.65;36.70;;;0.90;99.90;;;;;;4985087;28;20075;-35
2024/01/08 11:37:07;;;;;;;34.03;32.03;;;0.90;99.90;;;;;;4972515;28;20054;-33
2024/01/08 11:39:39;;;;;;;36.03;34.00;;;0.90;99.90;;;;;;4986474;28;20050;-34
2024/01/08 11:42:06;;;;;;;33.70;31.83;;;0.80;99.90;;;;;;4981820;28;20129;-33
2024/01/08 11:44:33;;;;;;;34.13;32.35;;;0.90;99.90;;;;;;4983936;28;20488;-33
2024/01/08 11:46:59;;;;;;;33.45;31.38;;;0.80;99.90;;;;;;4980469;28;20113;-33
2024/01/08 11:49:25;;;;;;;38.00;36.08;;;0.80;99.90;;;;;;4987569;28;20046;-34
2024/01/08 11:51:59;;;;;;;37.97;35.78;;;1.00;99.90;;;;;;4985620;28;20066;-35
2024/01/08 11:54:25;;;;;;;11.02;10.15;;;1.30;99.90;;;;;;4986392;28;20046;-33
2024/01/08 11:56:51;;;;;;;7.20;6.60;;;1.70;99.90;;;;;;4979835;28;20038;-34
2024/01/08 11:59:36;;;;;;;6.88;5.03;;;2.00;99.90;;;;;;4983276;28;20056;-35
2024/01/08 12:02:18;;;;;;;8.80;8.15;;;2.10;99.90;;;;;;4962981;28;20134;-34
2024/01/08 12:04:58;;;;;;;12.23;11.23;;;2.20;99.90;;;;;;4979203;28;20042;-33
2024/01/08 12:07:26;;;;;;;7.95;7.25;;;2.50;99.90;;;;;;4981984;28;20117;-35
2024/01/08 12:09:52;;;;;;;5.78;3.97;;;2.80;99.90;;;;;;4976230;28;20061;-34
2024/01/08 12:12:19;;;;;;;5.25;4.60;;;3.10;99.90;;;;;;4970902;28;20054;-35
2024/01/08 12:14:46;;;;;;;3.10;2.20;;;3.40;99.90;;;;;;4990276;28;20058;-34
2024/01/08 12:17:14;;;;;;;4.28;2.10;;;3.70;99.90;;;;;;4969450;28;20054;-33
2024/01/08 12:19:44;;;;;;;3.85;1.83;;;4.00;99.90;;;;;;4985946;28;20055;-34
2024/01/08 12:22:12;;;;;;;3.92;1.98;;;4.30;99.90;;;;;;4983951;28;20100;-34
2024/01/08 12:24:43;;;;;;;3.17;1.90;;;4.60;99.90;;;;;;4984292;28;20053;-34
2024/01/08 12:27:11;;;;;;;3.45;1.90;;;4.80;99.90;;;;;;4983004;28;20136;-35
2024/01/08 12:29:41;;;;;;;4.32;2.03;;;5.10;99.90;;;;;;4985325;28;20073;-35